Time;durP1;ratioP1;P1;durP2;ratioP2;P2;SDS_P1;SDS_P2;PMS_P1;PMS_P2;Temp;Humidity;BMP_temperature;BMP_pressure;BME280_temperature;BME280_humidity;BME280_pressure;Samples;Min_cycle;Max_cycle;Signal;HPM_P1;HPM_P2
2024/01/12 00:00:28;;;;;;;74.28;37.13;;;1.00;99.90;;;;;;5021310;28;20123;-68
2024/01/12 00:02:53;;;;;;;67.67;32.97;;;1.00;99.90;;;;;;5022220;28;20033;-67
2024/01/12 00:05:19;;;;;;;64.57;33.83;;;1.00;99.90;;;;;;5021331;28;20088;-67
2024/01/12 00:07:44;;;;;;;75.00;34.17;;;1.00;99.90;;;;;;5021730;28;20042;-68
2024/01/12 00:10:10;;;;;;;71.57;33.40;;;1.00;99.90;;;;;;5020359;28;20042;-68
2024/01/12 00:12:36;;;;;;;67.37;32.07;;;1.00;99.90;;;;;;5018432;28;20037;-69
2024/01/12 00:15:03;;;;;;;68.30;32.15;;;1.00;99.90;;;;;;5016989;28;20476;-67
2024/01/12 00:17:28;;;;;;;71.47;32.92;;;1.00;99.90;;;;;;5017704;28;20038;-68
2024/01/12 00:19:54;;;;;;;71.38;33.05;;;1.00;99.90;;;;;;5021518;28;20034;-68
2024/01/12 00:22:20;;;;;;;73.27;34.50;;;1.00;99.90;;;;;;5023187;28;20473;-68
2024/01/12 00:24:46;;;;;;;65.63;31.87;;;1.00;99.90;;;;;;5023503;28;20498;-68
2024/01/12 00:27:11;;;;;;;76.95;33.28;;;1.00;99.90;;;;;;5020370;28;20103;-68
2024/01/12 00:29:37;;;;;;;70.60;33.03;;;1.00;99.90;;;;;;5025659;28;20048;-68
2024/01/12 00:32:05;;;;;;;71.97;35.27;;;1.00;99.90;;;;;;5024806;28;20133;-66
2024/01/12 00:34:30;;;;;;;66.25;33.20;;;1.00;99.90;;;;;;5024940;28;20034;-65
2024/01/12 00:36:56;;;;;;;68.97;34.33;;;1.10;99.90;;;;;;5023468;28;20095;-65
2024/01/12 00:39:22;;;;;;;70.63;32.67;;;1.00;99.90;;;;;;5022801;28;20120;-65
2024/01/12 00:41:50;;;;;;;73.27;33.37;;;1.00;99.90;;;;;;5024831;28;20422;-68
2024/01/12 00:44:19;;;;;;;65.18;34.38;;;1.00;99.90;;;;;;5023347;28;20071;-67
2024/01/12 00:46:45;;;;;;;79.13;36.15;;;1.00;99.90;;;;;;5024406;28;20052;-68
2024/01/12 00:49:11;;;;;;;71.15;33.92;;;1.00;99.90;;;;;;5028677;28;20083;-68
2024/01/12 00:51:37;;;;;;;67.57;34.80;;;1.00;99.90;;;;;;5022115;28;20046;-68
2024/01/12 00:54:04;;;;;;;71.50;34.50;;;1.00;99.90;;;;;;5024904;28;20070;-68
2024/01/12 00:56:29;;;;;;;65.50;32.67;;;1.00;99.90;;;;;;5020929;28;20041;-68
2024/01/12 00:58:55;;;;;;;65.77;34.17;;;1.00;99.90;;;;;;5021333;28;20795;-68
2024/01/12 01:01:22;;;;;;;62.30;32.87;;;1.00;99.90;;;;;;5024206;28;20151;-67
2024/01/12 01:03:48;;;;;;;72.30;33.65;;;0.90;99.90;;;;;;5021962;28;20052;-66
2024/01/12 01:06:14;;;;;;;69.50;34.60;;;0.90;99.90;;;;;;5023624;28;20426;-68
2024/01/12 01:08:39;;;;;;;67.47;31.80;;;0.90;99.90;;;;;;5022799;28;20037;-68
2024/01/12 01:11:05;;;;;;;73.90;35.93;;;0.90;99.90;;;;;;5020843;28;20379;-68
2024/01/12 01:13:31;;;;;;;63.70;31.83;;;0.90;99.90;;;;;;5022794;28;20092;-66
2024/01/12 01:15:57;;;;;;;;;;;0.90;99.90;;;;;;5022669;28;20060;-66
2024/01/12 01:18:23;;;;;;;72.32;33.00;;;0.90;99.90;;;;;;5021035;28;21073;-65
2024/01/12 01:20:48;;;;;;;74.22;32.55;;;0.90;99.90;;;;;;5024153;28;20045;-66
2024/01/12 01:23:14;;;;;;;64.77;32.93;;;0.90;99.90;;;;;;5022268;28;20077;-66
2024/01/12 01:25:40;;;;;;;70.40;32.15;;;0.90;99.90;;;;;;5027168;28;20044;-66
2024/01/12 01:28:06;;;;;;;76.03;35.10;;;0.90;99.90;;;;;;5021496;28;20444;-66
2024/01/12 01:30:31;;;;;;;66.60;32.27;;;0.90;99.90;;;;;;5013691;28;20500;-66
2024/01/12 01:32:57;;;;;;;63.80;30.83;;;1.00;99.90;;;;;;5023449;28;20030;-67
2024/01/12 01:35:22;;;;;;;63.23;32.00;;;0.90;99.90;;;;;;5024945;28;20053;-66
2024/01/12 01:37:50;;;;;;;70.60;32.13;;;0.90;99.90;;;;;;5026439;28;20060;-67
2024/01/12 01:40:16;;;;;;;69.35;33.08;;;0.90;99.90;;;;;;5024000;28;20405;-66
2024/01/12 01:42:41;;;;;;;62.08;30.00;;;1.00;99.90;;;;;;5025166;28;20049;-66
2024/01/12 01:45:07;;;;;;;65.97;30.23;;;1.00;99.90;;;;;;5020237;28;20073;-66
2024/01/12 01:47:33;;;;;;;56.00;28.85;;;1.00;99.90;;;;;;5022020;28;20095;-66
2024/01/12 01:49:59;;;;;;;59.80;29.58;;;1.00;99.90;;;;;;5023604;28;20488;-66
2024/01/12 01:52:27;;;;;;;65.53;29.40;;;1.00;99.90;;;;;;5022554;28;20418;-66
2024/01/12 01:54:56;;;;;;;57.95;28.40;;;1.00;99.90;;;;;;5023367;28;20056;-66
2024/01/12 01:57:24;;;;;;;60.88;27.70;;;1.00;99.90;;;;;;5024426;28;20044;-65
2024/01/12 01:59:50;;;;;;;57.58;26.10;;;1.10;99.90;;;;;;5019572;28;21144;-66
2024/01/12 02:02:16;;;;;;;61.15;28.67;;;1.10;99.90;;;;;;5024792;28;20088;-67
2024/01/12 02:04:42;;;;;;;59.67;28.00;;;1.10;99.90;;;;;;5022895;28;20041;-68
2024/01/12 02:07:08;;;;;;;53.63;25.87;;;1.20;99.90;;;;;;5019479;28;20038;-67
2024/01/12 02:09:35;;;;;;;53.03;27.23;;;1.20;99.90;;;;;;5022957;28;20033;-65
2024/01/12 02:12:04;;;;;;;50.13;23.23;;;1.20;99.90;;;;;;5024260;28;20625;-66
2024/01/12 02:14:30;;;;;;;57.47;22.95;;;1.20;99.90;;;;;;5021450;28;20064;-65
2024/01/12 02:16:56;;;;;;;43.17;23.75;;;1.20;99.90;;;;;;5022961;28;20056;-66
2024/01/12 02:19:22;;;;;;;47.67;23.83;;;1.20;99.90;;;;;;5022284;28;20045;-68
2024/01/12 02:21:47;;;;;;;55.67;24.20;;;1.30;99.90;;;;;;5025005;28;20033;-66
2024/01/12 02:24:13;;;;;;;44.23;21.73;;;1.30;99.90;;;;;;5019834;28;20048;-65
2024/01/12 02:26:39;;;;;;;48.03;20.83;;;1.30;99.90;;;;;;5025088;28;20037;-65
2024/01/12 02:29:05;;;;;;;42.40;18.63;;;1.30;99.90;;;;;;5023960;28;20481;-66
2024/01/12 02:31:31;;;;;;;46.08;19.98;;;1.30;99.90;;;;;;5021563;28;20046;-67
2024/01/12 02:33:56;;;;;;;44.27;20.20;;;1.40;99.90;;;;;;5022442;28;20044;-66
2024/01/12 02:36:26;;;;;;;41.13;18.37;;;1.40;99.90;;;;;;5040815;28;20120;-67
2024/01/12 02:38:52;;;;;;;42.17;17.98;;;1.30;99.90;;;;;;5021566;28;20048;-66
2024/01/12 02:41:18;;;;;;;40.70;20.23;;;1.40;99.90;;;;;;5017973;28;20041;-66
2024/01/12 02:43:44;;;;;;;41.17;18.05;;;1.40;99.90;;;;;;5035693;28;20052;-66
2024/01/12 02:46:09;;;;;;;41.38;17.80;;;1.40;99.90;;;;;;5020038;28;20140;-66
2024/01/12 02:48:35;;;;;;;37.38;17.45;;;1.40;99.90;;;;;;5021284;28;20041;-66
2024/01/12 02:51:01;;;;;;;41.47;16.27;;;1.40;99.90;;;;;;5021675;28;20041;-67
2024/01/12 02:53:26;;;;;;;40.30;16.50;;;1.50;99.90;;;;;;5018050;28;20450;-66
2024/01/12 02:55:52;;;;;;;39.00;14.07;;;1.40;99.90;;;;;;5022858;28;20037;-64
2024/01/12 02:58:17;;;;;;;31.77;14.07;;;1.40;99.90;;;;;;5023211;28;20033;-66
2024/01/12 03:00:43;;;;;;;29.00;14.60;;;1.50;99.90;;;;;;5023904;28;20395;-65
2024/01/12 03:03:09;;;;;;;36.03;13.33;;;1.50;99.90;;;;;;5018231;28;20084;-65
2024/01/12 03:05:35;;;;;;;32.22;12.45;;;1.50;99.90;;;;;;5024432;28;20052;-66
2024/01/12 03:08:01;;;;;;;31.15;13.55;;;1.50;99.90;;;;;;5024182;28;20049;-65
2024/01/12 03:10:26;;;;;;;31.83;13.17;;;1.60;99.90;;;;;;5022794;28;20067;-65
2024/01/12 03:12:52;;;;;;;36.60;13.00;;;1.60;99.90;;;;;;5022285;28;20037;-65
2024/01/12 03:15:19;;;;;;;31.63;11.93;;;1.60;99.90;;;;;;5035209;28;20136;-66
2024/01/12 03:17:44;;;;;;;28.85;12.45;;;1.60;99.90;;;;;;5018639;28;20045;-65
2024/01/12 03:20:10;;;;;;;31.70;12.50;;;1.60;99.90;;;;;;5018737;28;20398;-65
2024/01/12 03:22:36;;;;;;;27.57;12.37;;;1.60;99.90;;;;;;5016473;28;20091;-66
2024/01/12 03:25:02;;;;;;;29.83;12.73;;;1.60;99.90;;;;;;5021869;28;20057;-66
2024/01/12 03:27:28;;;;;;;28.92;13.00;;;1.70;99.90;;;;;;5021016;28;20706;-65
2024/01/12 03:29:54;;;;;;;30.05;13.82;;;1.70;99.90;;;;;;5019819;28;20037;-66
2024/01/12 03:32:21;;;;;;;20.17;10.13;;;1.60;99.90;;;;;;5021840;28;20056;-66
2024/01/12 03:34:46;;;;;;;18.88;10.93;;;1.70;99.90;;;;;;5037674;28;20088;-66
2024/01/12 03:37:12;;;;;;;31.60;11.98;;;1.60;99.90;;;;;;5040500;28;20041;-66
2024/01/12 03:39:38;;;;;;;19.30;10.52;;;1.70;99.90;;;;;;5023424;28;20429;-66
2024/01/12 03:42:04;;;;;;;26.73;10.87;;;1.70;99.90;;;;;;5021872;28;20331;-66
2024/01/12 03:44:30;;;;;;;27.13;11.52;;;1.70;99.90;;;;;;5037317;28;20491;-66
2024/01/12 03:46:55;;;;;;;26.80;9.93;;;1.70;99.90;;;;;;5022125;28;20045;-66
2024/01/12 03:49:22;;;;;;;25.07;10.57;;;1.70;99.90;;;;;;5023770;28;20033;-66
2024/01/12 03:51:53;;;;;;;26.70;9.88;;;1.70;99.90;;;;;;5020618;28;20042;-66
2024/01/12 03:54:20;;;;;;;19.73;9.63;;;1.70;99.90;;;;;;5032940;28;20044;-66
2024/01/12 03:56:46;;;;;;;21.38;11.18;;;1.70;99.90;;;;;;5023249;28;20041;-68
2024/01/12 03:59:11;;;;;;;23.77;10.53;;;1.70;99.90;;;;;;5020813;28;20037;-66
2024/01/12 04:01:41;;;;;;;21.13;9.53;;;1.80;99.90;;;;;;5026652;28;20509;-66
2024/01/12 04:04:07;;;;;;;23.00;10.98;;;1.80;99.90;;;;;;5021104;28;20038;-66
2024/01/12 04:06:32;;;;;;;25.37;10.93;;;1.80;99.90;;;;;;5026579;28;20044;-66
2024/01/12 04:08:58;;;;;;;18.43;10.20;;;1.80;99.90;;;;;;5026601;28;20037;-67
2024/01/12 04:11:24;;;;;;;21.63;9.33;;;1.80;99.90;;;;;;5025393;28;20041;-66
2024/01/12 04:13:50;;;;;;;17.90;9.65;;;1.80;99.90;;;;;;5025116;28;20299;-66
2024/01/12 04:16:15;;;;;;;16.57;9.40;;;1.80;99.90;;;;;;5024746;28;20403;-67
2024/01/12 04:18:41;;;;;;;23.10;10.73;;;1.80;99.90;;;;;;5026402;28;20033;-66
2024/01/12 04:21:07;;;;;;;33.27;10.57;;;1.80;99.90;;;;;;5040243;28;20473;-67
2024/01/12 04:23:32;;;;;;;22.13;10.40;;;1.80;99.90;;;;;;5022230;28;20505;-66
2024/01/12 04:25:58;;;;;;;27.50;10.60;;;1.80;99.90;;;;;;5026385;28;20037;-65
2024/01/12 04:28:23;;;;;;;14.87;8.67;;;1.80;99.90;;;;;;5024777;28;20044;-66
2024/01/12 04:30:49;;;;;;;22.30;9.30;;;1.80;99.90;;;;;;5023991;28;20034;-66
2024/01/12 04:33:16;;;;;;;23.70;8.80;;;1.80;99.90;;;;;;5024755;28;20461;-66
2024/01/12 04:35:41;;;;;;;16.95;8.95;;;1.80;99.90;;;;;;5021539;28;20060;-65
2024/01/12 04:38:09;;;;;;;19.43;9.80;;;1.80;99.90;;;;;;5035188;28;20041;-66
2024/01/12 04:40:35;;;;;;;23.23;10.20;;;1.80;99.90;;;;;;5028815;28;20088;-65
2024/01/12 04:43:01;;;;;;;18.25;8.27;;;1.80;99.90;;;;;;5020652;28;20050;-66
2024/01/12 04:45:26;;;;;;;27.73;9.98;;;1.80;99.90;;;;;;5022824;28;20038;-66
2024/01/12 04:47:52;;;;;;;20.77;9.53;;;1.80;99.90;;;;;;5024434;28;20048;-66
2024/01/12 04:50:18;;;;;;;12.80;8.80;;;1.80;99.90;;;;;;5029317;28;20280;-66
2024/01/12 04:52:43;;;;;;;20.00;8.97;;;1.80;99.90;;;;;;5022923;28;20045;-66
2024/01/12 04:55:09;;;;;;;30.90;9.33;;;1.80;99.90;;;;;;5016190;28;20041;-68
2024/01/12 04:57:35;;;;;;;13.43;8.00;;;1.80;99.90;;;;;;5023579;28;20030;-65
2024/01/12 05:00:00;;;;;;;18.60;9.30;;;1.80;99.90;;;;;;5024783;28;20037;-66
2024/01/12 05:02:26;;;;;;;21.87;9.10;;;1.80;99.90;;;;;;5026023;28;20505;-68
2024/01/12 05:04:51;;;;;;;21.10;9.77;;;1.80;99.90;;;;;;5025646;28;20045;-66
2024/01/12 05:07:17;;;;;;;25.23;8.77;;;1.80;99.90;;;;;;5019780;28;20044;-66
2024/01/12 05:09:43;;;;;;;20.07;9.50;;;1.90;99.90;;;;;;5026179;28;20052;-66
2024/01/12 05:12:08;;;;;;;20.30;8.63;;;1.90;99.90;;;;;;5025689;28;20045;-66
2024/01/12 05:14:34;;;;;;;24.90;11.00;;;1.90;99.90;;;;;;5023713;28;20633;-67
2024/01/12 05:17:00;;;;;;;23.47;9.57;;;1.80;99.90;;;;;;5022493;28;20037;-66
2024/01/12 05:19:25;;;;;;;31.27;9.80;;;1.90;99.90;;;;;;5020192;28;20038;-68
2024/01/12 05:21:51;;;;;;;16.33;8.87;;;1.90;99.90;;;;;;5021086;28;20601;-69
2024/01/12 05:24:16;;;;;;;31.03;9.87;;;1.90;99.90;;;;;;5019831;28;20553;-70
2024/01/12 05:26:43;;;;;;;19.27;9.67;;;1.80;99.90;;;;;;5020539;28;20077;-68
2024/01/12 05:29:09;;;;;;;;;;;1.80;99.90;;;;;;5023018;28;20436;-65
2024/01/12 05:31:35;;;;;;;23.35;10.63;;;1.80;99.90;;;;;;5027555;28;19929;-65
2024/01/12 05:34:00;;;;;;;17.83;9.05;;;1.80;99.90;;;;;;5023759;28;20509;-65
2024/01/12 05:36:26;;;;;;;21.30;9.63;;;1.80;99.90;;;;;;5024550;28;20113;-68
2024/01/12 05:38:52;;;;;;;23.17;10.77;;;1.80;99.90;;;;;;5024146;28;20042;-66
2024/01/12 05:41:17;;;;;;;21.40;9.83;;;1.80;99.90;;;;;;5025588;28;20033;-66
2024/01/12 05:43:43;;;;;;;17.87;8.73;;;1.80;99.90;;;;;;5026611;28;20052;-65
2024/01/12 05:46:08;;;;;;;18.17;10.68;;;1.80;99.90;;;;;;5025527;28;20568;-66
2024/01/12 05:48:34;;;;;;;16.07;10.37;;;1.80;99.90;;;;;;5024457;28;20521;-66
2024/01/12 05:51:00;;;;;;;21.67;9.67;;;1.80;99.90;;;;;;5023847;28;20060;-66
2024/01/12 05:53:25;;;;;;;15.47;8.60;;;1.80;99.90;;;;;;5020684;28;20388;-66
2024/01/12 05:55:54;;;;;;;19.83;9.60;;;1.80;99.90;;;;;;5017323;28;20033;-69
2024/01/12 05:58:20;;;;;;;27.90;9.68;;;1.80;99.90;;;;;;5022027;28;20038;-66
2024/01/12 06:00:47;;;;;;;30.27;10.80;;;1.90;99.90;;;;;;5022872;28;20033;-65
2024/01/12 06:03:13;;;;;;;28.60;10.55;;;1.90;99.90;;;;;;5023278;28;20045;-66
2024/01/12 06:05:40;;;;;;;24.45;10.93;;;1.90;99.90;;;;;;5023181;28;20426;-65
2024/01/12 06:08:06;;;;;;;24.63;10.63;;;1.90;99.90;;;;;;5023733;28;20042;-66
2024/01/12 06:10:31;;;;;;;22.27;10.93;;;1.80;99.90;;;;;;5017927;28;20395;-65
2024/01/12 06:12:57;;;;;;;17.93;10.63;;;1.80;99.90;;;;;;5006170;28;20041;-66
2024/01/12 06:15:22;;;;;;;20.60;10.00;;;1.90;99.90;;;;;;5021890;28;20029;-66
2024/01/12 06:17:48;;;;;;;19.33;9.93;;;1.90;99.90;;;;;;5024653;28;20095;-66
2024/01/12 06:20:14;;;;;;;22.58;10.32;;;1.90;99.90;;;;;;5023778;28;20029;-66
2024/01/12 06:22:40;;;;;;;17.90;10.00;;;1.90;99.90;;;;;;5023561;28;20067;-66
2024/01/12 06:25:06;;;;;;;25.43;8.97;;;1.90;99.90;;;;;;5020569;28;20278;-65
2024/01/12 06:27:31;;;;;;;18.05;10.18;;;1.90;99.90;;;;;;5024447;28;20042;-65
2024/01/12 06:29:57;;;;;;;27.83;10.93;;;1.90;99.90;;;;;;5023752;28;20099;-66
2024/01/12 06:32:22;;;;;;;22.77;9.60;;;1.90;99.90;;;;;;5018416;28;20038;-66
2024/01/12 06:34:48;;;;;;;21.23;10.57;;;1.90;99.90;;;;;;5017506;28;20038;-66
2024/01/12 06:37:14;;;;;;;23.10;9.90;;;1.90;99.90;;;;;;5020520;28;20069;-67
2024/01/12 06:39:39;;;;;;;20.83;8.30;;;1.90;99.90;;;;;;5033691;28;20084;-68
2024/01/12 06:42:05;;;;;;;14.20;8.30;;;1.90;99.90;;;;;;5018817;28;20034;-66
2024/01/12 06:44:31;;;;;;;21.48;8.85;;;1.90;99.90;;;;;;5019850;28;20034;-66
2024/01/12 06:46:56;;;;;;;27.73;9.97;;;1.90;99.90;;;;;;5023060;28;20038;-65
2024/01/12 06:49:22;;;;;;;17.27;9.00;;;1.90;99.90;;;;;;5027267;28;20108;-65
2024/01/12 06:51:48;;;;;;;19.77;8.70;;;1.90;99.90;;;;;;5025003;28;20830;-65
2024/01/12 06:54:13;;;;;;;23.50;9.60;;;1.90;99.90;;;;;;5018132;28;20049;-65
2024/01/12 06:56:39;;;;;;;20.43;10.03;;;1.90;99.90;;;;;;5024515;28;20026;-65
2024/01/12 06:59:05;;;;;;;26.60;10.95;;;1.90;99.90;;;;;;5013606;28;20041;-67
2024/01/12 07:01:31;;;;;;;19.77;9.13;;;1.90;99.90;;;;;;5024054;28;20068;-68
2024/01/12 07:03:57;;;;;;;14.95;9.15;;;1.90;99.90;;;;;;5023424;28;20501;-67
2024/01/12 07:06:22;;;;;;;19.88;9.27;;;1.90;99.90;;;;;;5018333;28;20045;-68
2024/01/12 07:08:48;;;;;;;20.17;9.48;;;1.90;99.90;;;;;;5022983;28;20722;-68
2024/01/12 07:11:14;;;;;;;24.08;8.43;;;1.90;99.90;;;;;;5019342;28;20052;-67
2024/01/12 07:13:39;;;;;;;20.50;9.50;;;1.90;99.90;;;;;;5019440;28;20069;-65
2024/01/12 07:16:05;;;;;;;23.80;10.77;;;1.90;99.90;;;;;;5019832;28;20129;-65
2024/01/12 07:18:31;;;;;;;25.60;9.30;;;1.90;99.90;;;;;;5019024;28;20041;-68
2024/01/12 07:21:02;;;;;;;26.80;9.97;;;1.90;99.90;;;;;;5020599;28;20049;-68
2024/01/12 07:23:30;;;;;;;13.77;9.45;;;1.90;99.90;;;;;;5020244;28;20424;-65
2024/01/12 07:25:57;;;;;;;20.45;10.13;;;1.90;99.90;;;;;;5017949;28;20045;-68
2024/01/12 07:28:23;;;;;;;21.45;9.60;;;1.90;99.90;;;;;;5015591;28;20045;-68
2024/01/12 07:30:49;;;;;;;18.63;9.38;;;1.90;99.90;;;;;;5019924;28;20053;-65
2024/01/12 07:33:14;;;;;;;26.20;9.07;;;1.90;99.90;;;;;;5015515;28;20050;-68
2024/01/12 07:35:40;;;;;;;25.63;11.27;;;1.90;99.90;;;;;;5023790;28;20497;-68
2024/01/12 07:38:06;;;;;;;20.23;10.07;;;1.90;99.90;;;;;;5022880;28;20033;-67
2024/01/12 07:40:31;;;;;;;22.57;10.07;;;1.90;99.90;;;;;;5015595;28;20499;-68
2024/01/12 07:42:57;;;;;;;23.10;9.83;;;1.90;99.90;;;;;;5020103;28;20041;-67
2024/01/12 07:45:22;;;;;;;22.37;11.67;;;1.90;99.90;;;;;;5021099;28;20037;-68
2024/01/12 07:47:48;;;;;;;19.27;10.10;;;1.90;99.90;;;;;;5022871;28;20129;-67
2024/01/12 07:50:14;;;;;;;21.37;10.30;;;1.90;99.90;;;;;;5019238;28;20034;-68
2024/01/12 07:52:39;;;;;;;28.63;10.30;;;1.90;99.90;;;;;;5017266;28;20397;-66
2024/01/12 07:55:05;;;;;;;30.50;11.57;;;1.90;99.90;;;;;;5016888;28;20036;-65
2024/01/12 07:57:31;;;;;;;19.63;10.32;;;1.90;99.90;;;;;;5020333;28;20549;-65
2024/01/12 07:59:58;;;;;;;27.92;11.25;;;1.90;99.90;;;;;;5017676;28;20402;-65
2024/01/12 08:02:23;;;;;;;21.88;9.68;;;1.90;99.90;;;;;;5022006;28;20103;-66
2024/01/12 08:04:49;;;;;;;18.90;9.83;;;2.00;99.90;;;;;;5018392;28;20439;-65
2024/01/12 08:07:15;;;;;;;22.00;10.30;;;2.00;99.90;;;;;;5019196;28;20041;-65
2024/01/12 08:09:41;;;;;;;22.20;9.68;;;2.00;99.90;;;;;;5032745;28;20049;-66
2024/01/12 08:12:07;;;;;;;29.20;9.33;;;2.00;99.90;;;;;;5017984;28;21401;-68
2024/01/12 08:14:33;;;;;;;29.80;10.82;;;2.00;99.90;;;;;;5019623;28;20513;-65
2024/01/12 08:16:58;;;;;;;35.07;10.23;;;2.10;99.90;;;;;;5020059;28;20037;-65
2024/01/12 08:19:24;;;;;;;20.50;8.15;;;2.10;99.90;;;;;;5018680;28;20048;-66
2024/01/12 08:21:50;;;;;;;33.83;10.33;;;2.10;99.90;;;;;;5012926;28;21692;-67
2024/01/12 08:24:16;;;;;;;27.43;8.77;;;2.10;99.90;;;;;;5017767;28;20458;-66
2024/01/12 08:26:41;;;;;;;20.13;8.50;;;2.20;99.90;;;;;;5019064;28;20038;-66
2024/01/12 08:29:07;;;;;;;31.43;9.87;;;2.20;99.90;;;;;;5019297;28;20072;-67
2024/01/12 08:31:32;;;;;;;19.10;8.87;;;2.20;99.90;;;;;;5018473;28;20065;-68
2024/01/12 08:33:58;;;;;;;14.77;7.47;;;2.20;99.90;;;;;;5017437;28;20045;-68
2024/01/12 08:36:24;;;;;;;18.13;8.37;;;2.20;99.90;;;;;;5019244;28;20048;-68
2024/01/12 08:38:50;;;;;;;13.48;7.43;;;2.20;99.90;;;;;;5014858;28;20042;-68
2024/01/12 08:41:16;;;;;;;21.27;8.85;;;2.20;99.90;;;;;;5015891;28;20033;-68
2024/01/12 08:43:42;;;;;;;24.38;9.75;;;2.30;99.90;;;;;;5022241;28;20030;-68
2024/01/12 08:46:08;;;;;;;29.50;9.80;;;2.30;99.90;;;;;;5021854;28;20072;-69
2024/01/12 08:48:35;;;;;;;25.80;10.30;;;2.30;99.90;;;;;;5016709;28;20042;-68
2024/01/12 08:51:00;;;;;;;25.88;10.80;;;2.30;99.90;;;;;;5019318;28;20048;-69
2024/01/12 08:53:26;;;;;;;20.87;9.30;;;2.30;99.90;;;;;;5016844;28;20045;-69
2024/01/12 08:55:52;;;;;;;15.85;9.18;;;2.30;99.90;;;;;;5019775;28;20048;-68
2024/01/12 08:58:18;;;;;;;19.83;9.73;;;2.30;99.90;;;;;;5020491;28;20116;-68
2024/01/12 09:00:44;;;;;;;20.40;8.80;;;2.30;99.90;;;;;;5023773;28;20479;-68
2024/01/12 09:03:09;;;;;;;19.63;9.50;;;2.30;99.90;;;;;;5025427;28;20048;-68
2024/01/12 09:05:35;;;;;;;17.13;9.60;;;2.30;99.90;;;;;;5020856;28;20413;-68
2024/01/12 09:08:01;;;;;;;22.33;10.33;;;2.30;99.90;;;;;;5020513;28;20556;-68
2024/01/12 09:10:27;;;;;;;19.27;9.82;;;2.30;99.90;;;;;;5019998;28;20045;-68
2024/01/12 09:12:53;;;;;;;19.73;11.02;;;2.30;99.90;;;;;;5020211;28;20041;-68
2024/01/12 09:15:19;;;;;;;25.00;11.20;;;2.30;99.90;;;;;;5019950;28;20046;-69
2024/01/12 09:17:44;;;;;;;21.10;11.07;;;2.40;99.90;;;;;;5020242;28;20117;-68
2024/01/12 09:20:10;;;;;;;23.07;10.97;;;2.30;99.90;;;;;;5021303;28;20041;-68
2024/01/12 09:22:36;;;;;;;22.58;9.43;;;2.30;99.90;;;;;;5019535;28;20049;-69
2024/01/12 09:25:02;;;;;;;19.73;9.50;;;2.40;99.90;;;;;;5019163;28;20049;-67
2024/01/12 09:27:28;;;;;;;23.70;10.70;;;2.40;99.90;;;;;;5020050;28;20034;-66
2024/01/12 09:29:53;;;;;;;27.23;11.60;;;2.40;99.90;;;;;;5022135;28;20064;-66
2024/01/12 09:32:19;;;;;;;26.73;11.67;;;2.40;99.90;;;;;;5017266;28;20064;-66
2024/01/12 09:34:45;;;;;;;22.35;11.52;;;2.40;99.90;;;;;;5021312;28;20133;-67
2024/01/12 09:37:11;;;;;;;29.63;12.30;;;2.40;99.90;;;;;;5020318;28;20026;-66
2024/01/12 09:39:36;;;;;;;25.33;12.07;;;2.40;99.90;;;;;;5020232;28;20494;-66
2024/01/12 09:42:06;;;;;;;28.00;11.07;;;2.40;99.90;;;;;;5020863;28;20045;-66
2024/01/12 09:44:37;;;;;;;22.88;11.80;;;2.40;99.90;;;;;;5021861;28;20299;-67
2024/01/12 09:47:04;;;;;;;29.55;12.00;;;2.40;99.90;;;;;;5022689;28;20092;-67
2024/01/12 09:49:31;;;;;;;25.33;11.68;;;2.40;99.90;;;;;;5020971;28;20042;-66
2024/01/12 09:51:59;;;;;;;26.92;11.57;;;2.50;99.90;;;;;;5034841;28;20099;-67
2024/01/12 09:54:24;;;;;;;24.02;9.93;;;2.50;99.90;;;;;;5017663;28;20406;-67
2024/01/12 09:56:55;;;;;;;28.13;12.57;;;2.50;99.90;;;;;;5018902;28;20029;-66
2024/01/12 09:59:22;;;;;;;23.45;11.05;;;2.50;99.90;;;;;;5018620;28;20449;-65
2024/01/12 10:01:49;;;;;;;23.70;10.48;;;2.50;99.90;;;;;;5021905;28;20076;-64
2024/01/12 10:04:14;;;;;;;;;;;2.50;99.90;;;;;;5022125;28;21241;-67
2024/01/12 10:06:40;;;;;;;26.98;11.50;;;2.60;99.90;;;;;;5019806;28;20340;-67
2024/01/12 10:09:06;;;;;;;25.73;12.47;;;2.60;99.90;;;;;;5018744;28;20075;-67
2024/01/12 10:11:32;;;;;;;29.40;11.65;;;2.70;99.90;;;;;;5019836;28;20053;-67
2024/01/12 10:13:58;;;;;;;22.88;11.60;;;2.70;99.90;;;;;;5035753;28;20042;-67
2024/01/12 10:16:28;;;;;;;22.67;10.30;;;2.70;99.90;;;;;;5016221;28;20042;-67
2024/01/12 10:18:58;;;;;;;28.15;11.68;;;2.70;99.90;;;;;;5019541;28;20474;-69
2024/01/12 10:21:25;;;;;;;19.67;11.57;;;2.70;99.90;;;;;;5019715;28;20080;-66
2024/01/12 10:24:11;;;;;;;;;;;2.70;99.90;;;;;;5018890;28;20586;-67
2024/01/12 10:26:37;;;;;;;19.58;10.75;;;2.80;99.90;;;;;;5016987;28;19917;-66
2024/01/12 10:29:03;;;;;;;28.02;11.15;;;2.80;99.90;;;;;;5019392;28;20518;-68
2024/01/12 10:31:32;;;;;;;24.20;12.13;;;2.80;99.90;;;;;;5021263;28;20047;-67
2024/01/12 10:34:00;;;;;;;21.55;11.65;;;2.80;99.90;;;;;;5016822;28;20068;-66
2024/01/12 10:36:28;;;;;;;26.00;11.13;;;2.80;99.90;;;;;;5017160;28;20041;-67
2024/01/12 10:38:56;;;;;;;17.70;10.48;;;2.80;99.90;;;;;;5033857;28;20038;-66
2024/01/12 10:41:24;;;;;;;20.33;10.57;;;2.80;99.90;;;;;;5020109;28;20060;-66
2024/01/12 10:43:57;;;;;;;22.33;10.40;;;2.90;99.90;;;;;;5015197;28;20049;-67
2024/01/12 10:46:28;;;;;;;24.90;10.80;;;2.90;99.90;;;;;;5019955;28;20032;-66
2024/01/12 10:49:14;;;;;;;25.58;10.77;;;2.90;99.90;;;;;;5020554;28;20041;-67
2024/01/12 10:51:55;;;;;;;19.30;9.20;;;3.00;99.90;;;;;;5017107;28;20042;-67
2024/01/12 10:54:32;;;;;;;24.42;11.35;;;3.00;99.90;;;;;;5016515;28;20525;-67
2024/01/12 10:56:59;;;;;;;16.00;8.98;;;3.00;99.90;;;;;;5013987;28;20046;-67
2024/01/12 10:59:27;;;;;;;25.80;9.13;;;3.00;99.90;;;;;;5016342;28;20038;-67
2024/01/12 11:01:54;;;;;;;22.48;8.38;;;3.10;99.90;;;;;;5015437;28;20045;-67
2024/01/12 11:04:21;;;;;;;26.40;9.35;;;3.10;99.90;;;;;;5018880;28;20042;-67
2024/01/12 11:06:48;;;;;;;21.00;8.70;;;3.20;99.90;;;;;;5020859;28;20048;-66
2024/01/12 11:09:17;;;;;;;25.73;9.02;;;3.20;99.90;;;;;;5017987;28;20049;-67
2024/01/12 11:11:49;;;;;;;29.75;9.35;;;3.20;99.90;;;;;;5017571;28;20114;-67
2024/01/12 11:14:16;;;;;;;22.50;8.25;;;3.30;99.90;;;;;;5020155;28;20058;-66
2024/01/12 11:16:42;;;;;;;22.25;8.13;;;3.40;99.90;;;;;;5015808;28;20112;-67
2024/01/12 11:19:14;;;;;;;19.57;8.97;;;3.40;99.90;;;;;;5017613;28;20137;-67
2024/01/12 11:21:41;;;;;;;28.13;8.85;;;3.40;99.90;;;;;;5020048;28;20042;-68
2024/01/12 11:24:10;;;;;;;22.73;8.70;;;3.40;99.90;;;;;;5020148;28;20049;-67
2024/01/12 11:26:35;;;;;;;21.00;8.18;;;3.40;99.90;;;;;;5017528;28;20047;-67
2024/01/12 11:29:01;;;;;;;15.43;7.67;;;3.40;99.90;;;;;;5018675;28;20512;-67
2024/01/12 11:31:27;;;;;;;27.57;7.70;;;3.40;99.90;;;;;;5030136;28;20511;-67
2024/01/12 11:34:02;;;;;;;20.00;6.70;;;3.50;99.90;;;;;;5018433;28;20327;-67
2024/01/12 11:36:31;;;;;;;23.70;7.38;;;3.50;99.90;;;;;;5019891;28;20866;-67
2024/01/12 11:39:00;;;;;;;23.83;7.68;;;3.60;99.90;;;;;;5016082;28;20127;-67
2024/01/12 11:41:30;;;;;;;18.95;7.28;;;3.60;99.90;;;;;;5015487;28;20030;-67
2024/01/12 11:43:56;;;;;;;30.95;7.85;;;3.70;99.90;;;;;;5015445;28;20116;-67
2024/01/12 11:46:23;;;;;;;14.27;6.18;;;3.70;99.90;;;;;;5015079;28;20038;-67
2024/01/12 11:48:50;;;;;;;27.15;6.68;;;3.80;99.90;;;;;;5017725;28;20317;-67
2024/01/12 11:51:24;;;;;;;15.60;5.43;;;3.80;99.90;;;;;;5017588;28;20107;-67
2024/01/12 11:53:56;;;;;;;30.10;6.07;;;3.90;99.90;;;;;;5017519;28;20038;-66
2024/01/12 11:56:22;;;;;;;19.50;6.18;;;4.00;99.90;;;;;;5021326;28;20038;-67
2024/01/12 11:58:47;;;;;;;24.77;5.65;;;4.10;99.90;;;;;;5020273;28;20038;-67
2024/01/12 12:01:13;;;;;;;23.37;5.57;;;4.10;99.90;;;;;;5017697;28;20038;-66
2024/01/12 12:03:39;;;;;;;19.88;6.43;;;4.10;99.90;;;;;;5017019;28;20287;-68
2024/01/12 12:06:09;;;;;;;13.60;4.40;;;4.20;99.90;;;;;;5021369;28;20042;-67
2024/01/12 12:08:35;;;;;;;28.83;5.45;;;4.20;99.90;;;;;;5019617;28;20064;-67
2024/01/12 12:11:02;;;;;;;18.47;5.37;;;4.30;99.90;;;;;;5022587;28;20041;-70
2024/01/12 12:13:28;;;;;;;22.65;5.15;;;4.40;99.90;;;;;;5018938;28;20359;-68
2024/01/12 12:15:54;;;;;;;23.48;5.20;;;4.40;99.90;;;;;;5020598;28;20438;-69
2024/01/12 12:18:19;;;;;;;16.83;4.50;;;4.40;99.90;;;;;;5021536;28;20091;-69
2024/01/12 12:20:45;;;;;;;16.63;4.37;;;4.40;99.90;;;;;;5023161;28;20065;-68
2024/01/12 12:23:11;;;;;;;17.77;5.03;;;4.50;99.90;;;;;;5026989;28;20034;-68
2024/01/12 12:25:37;;;;;;;14.63;4.17;;;4.50;99.90;;;;;;5020918;28;20092;-71
2024/01/12 12:28:03;;;;;;;16.73;4.25;;;4.50;99.90;;;;;;5019005;28;20564;-68
2024/01/12 12:30:29;;;;;;;23.88;4.45;;;4.50;99.90;;;;;;5028163;28;20033;-68
2024/01/12 12:32:58;;;;;;;14.27;3.97;;;4.50;99.90;;;;;;5023597;28;20565;-67
2024/01/12 12:35:24;;;;;;;19.88;5.05;;;4.50;99.90;;;;;;5025207;28;20026;-69
2024/01/12 12:37:53;;;;;;;19.65;4.88;;;4.50;99.90;;;;;;5023191;28;20029;-70